Time;durP1;ratioP1;P1;durP2;ratioP2;P2;SDS_P1;SDS_P2;PMS_P1;PMS_P2;Temp;Humidity;BMP_temperature;BMP_pressure;BME280_temperature;BME280_humidity;BME280_pressure;Samples;Min_cycle;Max_cycle;Signal;HPM_P1;HPM_P2
2023/12/16 00:01:32;;;;;;;1.10;1.10;;;;;;;2.44;nan;-23884.16;5030293;28;20261;-69
2023/12/16 00:03:57;;;;;;;1.20;1.20;;;;;;;2.29;nan;-23879.75;5030769;28;20175;-68
2023/12/16 00:06:23;;;;;;;1.00;1.00;;;;;;;2.47;nan;-23885.03;5030406;28;20176;-69
2023/12/16 00:08:48;;;;;;;1.10;1.10;;;;;;;2.25;nan;-23878.75;5029367;28;20184;-69
2023/12/16 00:11:14;;;;;;;1.10;1.10;;;;;;;2.29;nan;-23879.75;5030725;28;20163;-69
2023/12/16 00:13:39;;;;;;;1.03;1.03;;;;;;;2.17;nan;-23876.47;5030629;28;20172;-68
2023/12/16 00:16:05;;;;;;;1.10;1.10;;;;;;;2.20;nan;-23877.31;5030443;28;20697;-68
2023/12/16 00:18:31;;;;;;;1.10;1.10;;;;;;;1.90;nan;-23868.75;5030177;28;20171;-68
2023/12/16 00:20:56;;;;;;;1.13;1.13;;;;;;;1.89;nan;-23868.47;5030815;28;20191;-68
2023/12/16 00:23:22;;;;;;;1.03;1.03;;;;;;;2.12;nan;-23875.03;5030551;28;20160;-68
2023/12/16 00:25:47;;;;;;;0.93;0.93;;;;;;;2.10;nan;-23874.59;5030341;28;20202;-67
2023/12/16 00:28:12;;;;;;;1.00;1.00;;;;;;;1.84;nan;-23867.03;5030418;28;20196;-69
2023/12/16 00:30:38;;;;;;;0.97;0.97;;;;;;;2.02;nan;-23872.16;5030417;28;20305;-70
2023/12/16 00:33:03;;;;;;;1.20;1.20;;;;;;;1.85;nan;-23867.31;5030724;28;20180;-69
2023/12/16 00:35:29;;;;;;;1.17;1.10;;;;;;;1.89;nan;-23868.47;5031001;28;20585;-69
2023/12/16 00:37:54;;;;;;;1.27;1.27;;;;;;;2.05;nan;-23873.16;5031631;28;20626;-70
2023/12/16 00:40:19;;;;;;;1.10;1.10;;;;;;;1.69;nan;-23863.03;5034103;28;20218;-70
2023/12/16 00:42:45;;;;;;;1.00;1.00;;;;;;;1.68;nan;-23862.75;5034655;28;20186;-69
2023/12/16 00:45:10;;;;;;;1.20;1.20;;;;;;;1.64;nan;-23861.59;5034406;28;20175;-69
2023/12/16 00:47:38;;;;;;;1.00;1.00;;;;;;;1.88;nan;-23868.16;5034748;28;20171;-69
2023/12/16 00:50:04;;;;;;;1.00;1.00;;;;;;;1.50;nan;-23857.59;5034656;28;20179;-69
2023/12/16 00:52:30;;;;;;;1.17;1.17;;;;;;;1.61;nan;-23860.75;5034440;28;20194;-70
2023/12/16 00:54:55;;;;;;;0.90;0.90;;;;;;;1.83;nan;-23866.88;5034127;28;20658;-70
2023/12/16 00:57:21;;;;;;;0.97;0.97;;;;;;;1.65;nan;-23861.88;5033287;28;20167;-69
2023/12/16 00:59:46;;;;;;;1.00;1.00;;;;;;;1.75;nan;-23864.75;5034510;28;20187;-68
2023/12/16 01:02:11;;;;;;;1.00;1.00;;;;;;;1.78;nan;-23865.47;5034913;28;20198;-68
2023/12/16 01:04:37;;;;;;;0.97;0.97;;;;;;;1.63;nan;-23861.31;5034404;28;20263;-69
2023/12/16 01:07:03;;;;;;;1.00;1.00;;;;;;;1.69;nan;-23863.03;5034331;28;20175;-71
2023/12/16 01:09:28;;;;;;;1.10;1.10;;;;;;;1.88;nan;-23868.16;5033848;28;20558;-68
2023/12/16 01:11:55;;;;;;;1.10;1.10;;;;;;;1.71;nan;-23863.47;5034124;28;20175;-70
2023/12/16 01:14:20;;;;;;;1.00;1.00;;;;;;;1.87;nan;-23867.88;5034626;28;20183;-69
2023/12/16 01:16:46;;;;;;;1.10;1.10;;;;;;;1.59;nan;-23860.16;5034364;28;20175;-70
2023/12/16 01:19:11;;;;;;;0.90;0.90;;;;;;;1.73;nan;-23864.03;5034461;28;20203;-69
2023/12/16 01:21:43;;;;;;;1.10;1.10;;;;;;;1.91;nan;-23869.16;5033945;28;20614;-67
2023/12/16 01:24:09;;;;;;;0.97;0.97;;;;;;;1.89;nan;-23868.47;5033995;28;20310;-69
2023/12/16 01:26:34;;;;;;;1.13;1.13;;;;;;;1.83;nan;-23866.75;5033895;28;20203;-69
2023/12/16 01:29:00;;;;;;;1.03;1.03;;;;;;;1.72;nan;-23863.75;5033862;28;20229;-68
2023/12/16 01:31:26;;;;;;;1.10;1.10;;;;;;;1.65;nan;-23861.88;4994478;28;1125957;-69
2023/12/16 01:33:51;;;;;;;1.20;1.20;;;;;;;1.66;nan;-23862.03;5034171;28;20658;-68
2023/12/16 01:36:17;;;;;;;1.20;1.20;;;;;;;1.50;nan;-23857.47;5033778;28;20183;-69
2023/12/16 01:38:42;;;;;;;1.00;1.00;;;;;;;1.59;nan;-23860.03;5034221;28;20171;-69
2023/12/16 01:41:08;;;;;;;1.10;1.10;;;;;;;1.57;nan;-23859.59;5033809;28;20293;-67
2023/12/16 01:43:33;;;;;;;1.13;1.13;;;;;;;1.74;nan;-23864.47;5034052;28;20179;-69
2023/12/16 01:46:04;;;;;;;1.07;1.07;;;;;;;1.47;nan;-23856.59;5032374;28;20183;-69
2023/12/16 01:48:31;;;;;;;1.07;1.07;;;;;;;1.70;nan;-23863.31;5032942;28;20555;-69
2023/12/16 01:50:57;;;;;;;1.17;1.17;;;;;;;1.68;nan;-23862.75;5033494;28;20198;-68
2023/12/16 01:53:23;;;;;;;1.10;1.10;;;;;;;1.52;nan;-23858.03;5033271;28;20214;-69
2023/12/16 01:55:48;;;;;;;1.07;1.07;;;;;;;1.78;nan;-23865.59;5033238;28;20601;-68
2023/12/16 01:58:14;;;;;;;1.10;1.10;;;;;;;1.50;nan;-23857.59;5033350;28;20180;-69
2023/12/16 02:00:41;;;;;;;1.07;1.07;;;;;;;1.69;nan;-23862.88;5033266;28;20195;-69
2023/12/16 02:03:07;;;;;;;0.97;0.97;;;;;;;1.45;nan;-23856.03;5033184;28;20176;-68
2023/12/16 02:05:32;;;;;;;1.10;1.10;;;;;;;1.54;nan;-23858.59;5033256;28;20179;-70
2023/12/16 02:07:58;;;;;;;1.00;1.00;;;;;;;1.42;nan;-23855.31;5032899;28;20612;-68
2023/12/16 02:10:23;;;;;;;1.00;1.00;;;;;;;1.64;nan;-23861.47;5032987;28;20179;-69
2023/12/16 02:12:49;;;;;;;1.10;1.10;;;;;;;1.54;nan;-23858.75;5032709;28;20175;-68
2023/12/16 02:15:14;;;;;;;1.03;1.03;;;;;;;1.34;nan;-23853.03;5033119;28;20171;-67
2023/12/16 02:17:40;;;;;;;1.20;1.20;;;;;;;1.33;nan;-23852.75;5033209;28;20532;-66
2023/12/16 02:20:06;;;;;;;1.03;1.03;;;;;;;1.58;nan;-23859.88;5032480;28;20202;-70
2023/12/16 02:22:31;;;;;;;1.00;1.00;;;;;;;1.30;nan;-23852.03;5033042;28;20183;-70
2023/12/16 02:24:57;;;;;;;1.10;1.10;;;;;;;1.57;nan;-23859.47;5032615;28;20223;-68
2023/12/16 02:27:23;;;;;;;1.10;1.10;;;;;;;1.59;nan;-23860.03;5032509;28;20179;-68
2023/12/16 02:29:48;;;;;;;1.67;1.57;;;;;;;1.68;nan;-23862.75;5032364;28;20221;-69
2023/12/16 02:32:13;;;;;;;1.20;1.20;;;;;;;1.56;nan;-23859.16;5033088;28;20555;-69
2023/12/16 02:34:39;;;;;;;1.00;1.00;;;;;;;1.57;nan;-23859.59;5033050;28;20214;-69
2023/12/16 02:37:06;;;;;;;1.20;1.20;;;;;;;1.64;nan;-23861.59;5033042;28;20499;-67
2023/12/16 02:39:33;;;;;;;1.60;1.50;;;;;;;1.61;nan;-23860.59;5032315;28;20643;-68
2023/12/16 02:41:58;;;;;;;1.03;1.03;;;;;;;1.63;nan;-23861.31;5032562;28;20237;-67
2023/12/16 02:44:24;;;;;;;1.00;1.00;;;;;;;1.51;nan;-23857.88;5032409;28;20176;-67
2023/12/16 02:46:49;;;;;;;1.17;1.17;;;;;;;1.38;nan;-23854.03;5032400;28;20528;-67
2023/12/16 02:49:14;;;;;;;1.10;1.10;;;;;;;1.52;nan;-23858.16;5032712;28;20202;-67
2023/12/16 02:51:40;;;;;;;1.27;1.27;;;;;;;1.47;nan;-23856.75;5032475;28;20681;-68
2023/12/16 02:54:05;;;;;;;1.00;1.00;;;;;;;1.23;nan;-23850.03;5031920;28;20266;-69
2023/12/16 02:56:31;;;;;;;1.00;1.00;;;;;;;1.50;nan;-23857.59;5032391;28;20241;-68
2023/12/16 02:58:56;;;;;;;1.30;1.30;;;;;;;1.10;nan;-23846.31;5031931;28;20179;-68
2023/12/16 03:01:22;;;;;;;1.10;1.10;;;;;;;1.09;nan;-23846.03;5031380;28;20654;-69
2023/12/16 03:03:47;;;;;;;1.10;1.10;;;;;;;1.08;nan;-23845.59;5031960;28;20201;-67
2023/12/16 03:06:12;;;;;;;1.20;1.20;;;;;;;1.38;nan;-23854.16;5031690;28;20183;-68
2023/12/16 03:08:38;;;;;;;1.20;1.17;;;;;;;1.35;nan;-23853.31;5031756;28;20175;-68
2023/12/16 03:11:04;;;;;;;0.90;0.90;;;;;;;1.39;nan;-23854.44;5031989;28;20577;-67
2023/12/16 03:13:30;;;;;;;1.27;1.27;;;;;;;1.38;nan;-23854.16;5031807;28;20261;-68
2023/12/16 03:15:55;;;;;;;1.20;1.20;;;;;;;1.33;nan;-23852.75;5031923;28;20182;-67
2023/12/16 03:18:21;;;;;;;1.00;1.00;;;;;;;1.34;nan;-23853.16;5031407;28;20179;-67
2023/12/16 03:20:48;;;;;;;1.30;1.30;;;;;;;1.12;nan;-23846.72;5030378;28;20210;-67
2023/12/16 03:23:14;;;;;;;1.20;1.20;;;;;;;1.29;nan;-23851.75;5031547;28;20349;-67
2023/12/16 03:25:39;;;;;;;1.00;1.00;;;;;;;1.31;nan;-23852.16;5031423;28;20659;-68
2023/12/16 03:28:05;;;;;;;1.07;1.07;;;;;;;1.22;nan;-23849.72;5031819;28;20172;-68
2023/12/16 03:30:30;;;;;;;1.43;1.33;;;;;;;1.07;nan;-23845.31;5031302;28;20285;-67
2023/12/16 03:32:56;;;;;;;1.00;1.00;;;;;;;1.13;nan;-23847.03;5031194;28;20182;-67
2023/12/16 03:35:21;;;;;;;1.30;1.20;;;;;;;1.16;nan;-23847.88;5029643;28;20373;-68
2023/12/16 03:37:47;;;;;;;1.77;1.67;;;;;;;1.13;nan;-23847.16;5031016;28;20201;-67
2023/12/16 03:40:13;;;;;;;1.93;1.60;;;;;;;1.17;nan;-23848.16;5031196;28;20199;-68
2023/12/16 03:42:38;;;;;;;1.10;1.10;;;;;;;1.19;nan;-23848.75;5031002;28;20190;-66
2023/12/16 03:45:04;;;;;;;1.10;1.10;;;;;;;1.14;nan;-23847.31;5031184;28;20573;-66
2023/12/16 03:47:29;;;;;;;1.33;1.23;;;;;;;1.26;nan;-23850.72;5031035;28;20167;-67
2023/12/16 03:49:55;;;;;;;1.00;1.00;;;;;;;1.40;nan;-23854.59;5029496;28;20176;-66
2023/12/16 03:52:20;;;;;;;1.10;1.10;;;;;;;1.10;nan;-23846.31;5030534;28;20298;-66
2023/12/16 03:54:45;;;;;;;1.37;1.27;;;;;;;1.36;nan;-23853.44;5028914;28;20183;-69
2023/12/16 03:57:11;;;;;;;1.60;1.50;;;;;;;1.40;nan;-23854.75;5029325;28;20178;-68
2023/12/16 03:59:36;;;;;;;1.20;1.20;;;;;;;1.34;nan;-23853.03;5029120;28;20168;-67
2023/12/16 04:02:02;;;;;;;1.07;1.07;;;;;;;1.42;nan;-23855.31;5029568;28;20167;-68
2023/12/16 04:04:27;;;;;;;1.10;1.10;;;;;;;1.26;nan;-23850.72;5029578;28;20599;-67
2023/12/16 04:06:53;;;;;;;1.03;1.03;;;;;;;1.06;nan;-23845.03;5029283;28;20606;-66
2023/12/16 04:09:18;;;;;;;1.17;1.17;;;;;;;1.13;nan;-23847.16;5031049;28;20171;-67
2023/12/16 04:11:48;;;;;;;1.07;1.07;;;;;;;1.39;nan;-23854.44;5030657;28;20680;-68
2023/12/16 04:14:13;;;;;;;1.33;1.23;;;;;;;1.19;nan;-23848.75;5030883;28;20651;-67
2023/12/16 04:16:39;;;;;;;1.87;1.77;;;;;;;1.38;nan;-23854.03;5030881;28;20183;-68
2023/12/16 04:19:05;;;;;;;1.20;1.20;;;;;;;1.14;nan;-23847.31;5030506;28;20163;-67
2023/12/16 04:21:32;;;;;;;1.10;1.10;;;;;;;1.11;nan;-23846.59;5030937;28;20214;-68
2023/12/16 04:23:58;;;;;;;1.40;1.30;;;;;;;1.00;nan;-23843.31;5030768;28;20214;-66
2023/12/16 04:26:24;;;;;;;0.97;0.97;;;;;;;1.32;nan;-23852.44;5031298;28;20263;-68
2023/12/16 04:28:49;;;;;;;1.10;1.10;;;;;;;1.06;nan;-23845.16;5031182;28;20290;-67
2023/12/16 04:31:19;;;;;;;1.53;1.43;;;;;;;1.33;nan;-23852.75;5030671;28;20231;-66
2023/12/16 04:33:45;;;;;;;1.07;1.07;;;;;;;1.33;nan;-23852.75;5030527;28;20282;-66
2023/12/16 04:36:14;;;;;;;1.00;1.00;;;;;;;0.99;nan;-23843.00;5030441;28;20267;-67
2023/12/16 04:38:40;;;;;;;1.50;1.40;;;;;;;0.99;nan;-23843.00;5030800;28;20183;-66
2023/12/16 04:41:06;;;;;;;1.30;1.30;;;;;;;1.12;nan;-23846.88;5030748;28;20350;-66
2023/12/16 04:43:31;;;;;;;1.30;1.27;;;;;;;1.22;nan;-23849.72;5030495;28;20284;-66
2023/12/16 04:45:57;;;;;;;2.83;1.20;;;;;;;1.23;nan;-23849.88;5030589;28;20194;-67
2023/12/16 04:48:22;;;;;;;1.23;1.23;;;;;;;1.07;nan;-23845.31;5030556;28;20202;-67
2023/12/16 04:50:47;;;;;;;1.07;1.07;;;;;;;1.14;nan;-23847.31;5030566;28;20320;-68
2023/12/16 04:53:13;;;;;;;1.40;1.30;;;;;;;1.10;nan;-23846.16;5030298;28;20672;-68
2023/12/16 04:55:38;;;;;;;1.43;1.33;;;;;;;1.15;nan;-23847.75;5030302;28;20210;-66
2023/12/16 04:58:04;;;;;;;1.10;1.10;;;;;;;0.92;nan;-23841.00;5030492;28;20182;-66
2023/12/16 05:00:29;;;;;;;1.67;1.57;;;;;;;0.97;nan;-23842.44;5030381;28;20199;-66
2023/12/16 05:02:55;;;;;;;0.90;0.90;;;;;;;1.22;nan;-23849.59;5030090;28;20594;-66
2023/12/16 05:05:20;;;;;;;1.50;1.40;;;;;;;0.92;nan;-23841.00;5032570;28;20187;-66
2023/12/16 05:07:45;;;;;;;1.50;1.40;;;;;;;0.97;nan;-23842.59;5030356;28;20179;-66
2023/12/16 05:10:11;;;;;;;1.00;1.00;;;;;;;0.98;nan;-23842.72;5030306;28;20765;-66
2023/12/16 05:12:38;;;;;;;1.10;1.10;;;;;;;1.25;nan;-23850.59;5030621;28;20182;-67
2023/12/16 05:15:04;;;;;;;1.30;1.30;;;;;;;0.92;nan;-23841.16;5030266;28;20179;-67
2023/12/16 05:17:30;;;;;;;1.00;1.00;;;;;;;1.12;nan;-23846.72;5030624;28;20568;-68
2023/12/16 05:19:55;;;;;;;1.00;1.00;;;;;;;1.13;nan;-23847.16;5030229;28;20657;-67
2023/12/16 05:22:20;;;;;;;1.00;1.00;;;;;;;0.92;nan;-23841.00;5030487;28;20178;-66
2023/12/16 05:24:48;;;;;;;1.97;1.50;;;;;;;1.20;nan;-23849.03;5031266;28;20275;-67
2023/12/16 05:27:13;;;;;;;1.10;1.10;;;;;;;1.25;nan;-23850.59;5033720;28;20560;-67
2023/12/16 05:29:39;;;;;;;1.07;1.07;;;;;;;0.96;nan;-23842.16;5033891;28;20174;-67
2023/12/16 05:32:04;;;;;;;1.17;1.17;;;;;;;1.16;nan;-23848.03;5033950;28;20219;-67
2023/12/16 05:34:30;;;;;;;1.43;1.33;;;;;;;1.23;nan;-23850.03;5034143;28;20180;-66
2023/12/16 05:36:55;;;;;;;1.10;1.10;;;;;;;0.96;nan;-23842.31;5033964;28;20186;-67
2023/12/16 05:39:21;;;;;;;1.20;1.20;;;;;;;1.28;nan;-23851.31;5033658;28;20175;-68
2023/12/16 05:41:46;;;;;;;1.30;1.30;;;;;;;1.10;nan;-23846.16;5033530;28;20302;-67
2023/12/16 05:44:11;;;;;;;1.40;1.30;;;;;;;1.08;nan;-23845.72;5033322;28;20176;-68
2023/12/16 05:46:37;;;;;;;2.30;1.50;;;;;;;1.24;nan;-23850.16;5033600;28;20238;-66
2023/12/16 05:49:03;;;;;;;1.53;1.43;;;;;;;1.37;nan;-23853.75;5033577;28;20683;-68
2023/12/16 05:51:28;;;;;;;1.73;1.50;;;;;;;1.30;nan;-23852.03;5033675;28;20183;-68
2023/12/16 05:53:54;;;;;;;1.10;1.10;;;;;;;1.32;nan;-23852.44;5033804;28;20202;-68
2023/12/16 05:56:19;;;;;;;1.37;1.30;;;;;;;1.28;nan;-23851.44;5033302;28;20171;-67
2023/12/16 05:58:44;;;;;;;1.13;1.13;;;;;;;1.06;nan;-23845.16;5033265;28;20181;-66
2023/12/16 06:01:10;;;;;;;1.27;1.27;;;;;;;1.02;nan;-23843.88;5033282;28;20207;-68
2023/12/16 06:03:35;;;;;;;1.33;1.30;;;;;;;1.10;nan;-23846.16;5033482;28;20175;-67
2023/12/16 06:06:01;;;;;;;1.23;1.20;;;;;;;1.21;nan;-23849.44;5033129;28;20270;-68
2023/12/16 06:08:26;;;;;;;1.30;1.20;;;;;;;1.32;nan;-23852.59;5033428;28;20184;-67
2023/12/16 06:10:52;;;;;;;1.30;1.20;;;;;;;1.37;nan;-23853.88;5033414;28;20234;-68
2023/12/16 06:13:17;;;;;;;1.07;1.07;;;;;;;1.14;nan;-23847.31;5033239;28;20171;-67
2023/12/16 06:15:43;;;;;;;1.23;1.23;;;;;;;1.38;nan;-23854.03;5031489;28;20266;-67
2023/12/16 06:18:08;;;;;;;1.30;1.20;;;;;;;1.41;nan;-23855.03;5033257;28;20183;-65
2023/12/16 06:20:34;;;;;;;1.20;1.20;;;;;;;1.38;nan;-23854.16;5033351;28;20203;-66
2023/12/16 06:23:00;;;;;;;1.53;1.43;;;;;;;1.32;nan;-23852.59;5033087;28;20171;-67
2023/12/16 06:25:25;;;;;;;1.10;1.10;;;;;;;1.37;nan;-23853.88;5032862;28;20233;-69
2023/12/16 06:27:51;;;;;;;1.50;1.40;;;;;;;1.58;nan;-23859.88;5032823;28;20674;-67
2023/12/16 06:30:16;;;;;;;1.23;1.23;;;;;;;1.57;nan;-23859.47;5032362;28;20219;-67
2023/12/16 06:32:41;;;;;;;1.67;1.57;;;;;;;1.55;nan;-23859.03;5032735;28;20185;-70
2023/12/16 06:35:07;;;;;;;1.30;1.30;;;;;;;1.56;nan;-23859.31;5031636;28;20663;-67
2023/12/16 06:37:33;;;;;;;1.20;1.20;;;;;;;1.31;nan;-23852.16;5031146;28;20183;-65
2023/12/16 06:39:58;;;;;;;1.10;1.10;;;;;;;1.57;nan;-23859.47;5032736;28;20241;-66
2023/12/16 06:42:23;;;;;;;1.30;1.20;;;;;;;1.36;nan;-23853.44;5032819;28;20171;-67
2023/12/16 06:44:49;;;;;;;1.00;1.00;;;;;;;1.28;nan;-23851.44;5032704;28;20254;-66
2023/12/16 06:47:14;;;;;;;1.10;1.10;;;;;;;1.68;nan;-23862.75;5032811;28;20284;-67
2023/12/16 06:49:39;;;;;;;1.10;1.10;;;;;;;1.78;nan;-23865.47;5032790;28;20662;-67
2023/12/16 06:52:05;;;;;;;1.20;1.20;;;;;;;1.67;nan;-23862.31;5032530;28;20267;-66
2023/12/16 06:54:31;;;;;;;1.13;1.13;;;;;;;1.48;nan;-23857.03;5030790;28;20183;-66
2023/12/16 06:56:56;;;;;;;1.00;1.00;;;;;;;1.65;nan;-23861.88;5031896;28;20179;-67
2023/12/16 06:59:21;;;;;;;1.10;1.10;;;;;;;1.56;nan;-23859.31;5031560;28;20606;-67
2023/12/16 07:01:47;;;;;;;1.23;1.23;;;;;;;1.50;nan;-23857.47;5031928;28;20203;-66
2023/12/16 07:04:12;;;;;;;1.00;1.00;;;;;;;1.51;nan;-23857.88;5032088;28;20696;-67
2023/12/16 07:06:38;;;;;;;1.57;1.47;;;;;;;0.96;nan;-23842.31;5031868;28;20638;-66
2023/12/16 07:09:03;;;;;;;1.37;1.27;;;;;;;1.11;nan;-23846.44;5031987;28;20577;-66
2023/12/16 07:11:28;;;;;;;1.93;1.50;;;;;;;1.38;nan;-23854.16;5030861;28;20635;-66
2023/12/16 07:13:54;;;;;;;1.10;1.10;;;;;;;1.46;nan;-23856.47;5031308;28;20267;-67
2023/12/16 07:16:19;;;;;;;1.07;1.07;;;;;;;1.40;nan;-23854.75;5032072;28;20171;-68
2023/12/16 07:18:45;;;;;;;1.20;1.20;;;;;;;1.34;nan;-23853.16;5031694;28;20680;-65
2023/12/16 07:21:10;;;;;;;1.00;1.00;;;;;;;1.56;nan;-23859.16;5031446;28;20214;-65
2023/12/16 07:23:36;;;;;;;1.00;1.00;;;;;;;1.51;nan;-23857.88;5031876;28;20226;-66
2023/12/16 07:26:02;;;;;;;5.90;1.57;;;;;;;1.66;nan;-23862.03;5031758;28;20637;-65
2023/12/16 07:28:28;;;;;;;1.00;1.00;;;;;;;1.62;nan;-23861.03;5031071;28;20175;-66
2023/12/16 07:30:53;;;;;;;1.10;1.10;;;;;;;1.69;nan;-23863.03;5031184;28;20223;-66
2023/12/16 07:33:18;;;;;;;1.20;1.20;;;;;;;1.94;nan;-23869.88;5031582;28;20171;-66
2023/12/16 07:35:44;;;;;;;1.20;1.20;;;;;;;1.90;nan;-23868.75;5031862;28;20179;-65
2023/12/16 07:38:09;;;;;;;1.80;1.70;;;;;;;1.65;nan;-23861.88;5031527;28;20211;-67
2023/12/16 07:40:36;;;;;;;1.20;1.20;;;;;;;1.89;nan;-23868.59;5031438;28;20697;-66
2023/12/16 07:43:02;;;;;;;1.40;1.30;;;;;;;1.73;nan;-23864.03;5030906;28;20175;-67
2023/12/16 07:45:27;;;;;;;1.40;1.30;;;;;;;2.01;nan;-23872.03;5031332;28;20661;-66
2023/12/16 07:47:52;;;;;;;1.50;1.40;;;;;;;2.07;nan;-23873.59;5030976;28;20182;-67
2023/12/16 07:50:20;;;;;;;2.23;1.40;;;;;;;1.87;nan;-23868.03;5030936;28;20266;-66
2023/12/16 07:52:46;;;;;;;1.20;1.20;;;;;;;2.04;nan;-23872.75;5030780;28;20532;-67
2023/12/16 07:55:12;;;;;;;1.30;1.23;;;;;;;1.91;nan;-23869.03;5031112;28;20167;-67
2023/12/16 07:57:37;;;;;;;1.23;1.13;;;;;;;1.87;nan;-23867.88;5030260;28;20179;-65
2023/12/16 08:00:04;;;;;;;1.33;1.30;;;;;;;2.15;nan;-23876.03;5029464;28;20190;-66
2023/12/16 08:02:31;;;;;;;1.30;1.30;;;;;;;1.97;nan;-23870.75;5030937;28;20179;-68
2023/12/16 08:04:57;;;;;;;1.10;1.10;;;;;;;2.08;nan;-23874.03;5030879;28;20171;-66
2023/12/16 08:07:22;;;;;;;1.53;1.43;;;;;;;2.11;nan;-23874.88;5030799;28;20532;-65
2023/12/16 08:09:49;;;;;;;1.30;1.30;;;;;;;2.37;nan;-23882.16;5030085;28;20209;-67
2023/12/16 08:12:14;;;;;;;1.43;1.33;;;;;;;2.17;nan;-23876.47;5030693;28;20182;-66
2023/12/16 08:14:39;;;;;;;1.60;1.50;;;;;;;2.23;nan;-23878.31;5030801;28;20183;-64
2023/12/16 08:17:06;;;;;;;1.60;1.50;;;;;;;2.43;nan;-23883.88;5030870;28;20217;-66
2023/12/16 08:19:32;;;;;;;2.33;1.60;;;;;;;2.41;nan;-23883.31;5030588;28;20209;-66
2023/12/16 08:22:00;;;;;;;1.60;1.50;;;;;;;2.53;nan;-23886.75;5030468;28;20203;-67
2023/12/16 08:24:25;;;;;;;7.57;1.90;;;;;;;2.53;nan;-23886.75;5030716;28;20193;-66
2023/12/16 08:26:51;;;;;;;1.13;1.13;;;;;;;2.54;nan;-23886.88;5025638;28;20274;-68
2023/12/16 08:29:16;;;;;;;1.80;1.70;;;;;;;2.32;nan;-23880.75;5030767;28;20254;-67
2023/12/16 08:31:41;;;;;;;1.40;1.30;;;;;;;2.61;nan;-23889.03;5030702;28;20697;-66
2023/12/16 08:34:07;;;;;;;2.97;1.47;;;;;;;2.60;nan;-23888.72;5030450;28;20269;-67
2023/12/16 08:36:32;;;;;;;2.17;2.00;;;;;;;2.88;nan;-23896.44;5030476;28;20190;-65
2023/12/16 08:38:57;;;;;;;1.00;1.00;;;;;;;2.90;nan;-23897.16;5030250;28;20717;-67
2023/12/16 08:41:23;;;;;;;1.40;1.30;;;;;;;2.67;nan;-23890.59;5028871;28;20205;-67
2023/12/16 08:43:48;;;;;;;1.60;1.50;;;;;;;2.94;nan;-23898.16;5030533;28;20269;-67
2023/12/16 08:46:13;;;;;;;2.07;1.87;;;;;;;2.99;nan;-23899.56;5030480;28;20182;-67
2023/12/16 08:48:40;;;;;;;1.47;1.37;;;;;;;3.09;nan;-23902.56;5030412;28;20683;-67
2023/12/16 08:51:06;;;;;;;1.50;1.40;;;;;;;2.88;nan;-23896.44;5029283;28;20237;-68
2023/12/16 08:53:31;;;;;;;1.60;1.50;;;;;;;2.92;nan;-23897.72;5030527;28;20318;-66
2023/12/16 08:55:57;;;;;;;1.90;1.80;;;;;;;3.18;nan;-23904.84;5030700;28;20317;-65
2023/12/16 08:58:22;;;;;;;1.63;1.50;;;;;;;3.26;nan;-23905.28;5030698;28;20637;-67
2023/12/16 09:00:48;;;;;;;1.43;1.33;;;;;;;3.38;nan;-23908.72;5033891;28;20206;-66
2023/12/16 09:03:14;;;;;;;1.40;1.30;;;;;;;3.08;nan;-23900.31;5034541;28;20262;-67
2023/12/16 09:05:41;;;;;;;2.33;2.13;;;;;;;3.28;nan;-23591.13;5034444;28;20159;-67
2023/12/16 09:08:06;;;;;;;1.77;1.67;;;;;;;3.02;nan;-23584.00;5033950;28;20560;-66
2023/12/16 09:10:32;;;;;;;1.47;1.37;;;;;;;3.20;nan;-23903.72;5033820;28;20189;-68
2023/12/16 09:12:58;;;;;;;1.50;1.40;;;;;;;2.83;nan;-23893.31;5034667;28;20257;-67
2023/12/16 09:15:24;;;;;;;1.20;1.20;;;;;;;2.23;nan;-23878.16;5034418;28;20282;-68
2023/12/16 09:17:49;;;;;;;1.60;1.50;;;;;;;2.70;nan;-23891.44;5034473;28;20206;-66
2023/12/16 09:20:15;;;;;;;1.23;1.23;;;;;;;2.58;nan;-23888.16;5032734;28;20203;-66
2023/12/16 09:22:40;;;;;;;2.00;1.90;;;;;;;2.60;nan;-23888.59;5034122;28;20210;-66
2023/12/16 09:25:08;;;;;;;3.40;1.80;;;;;;;2.82;nan;-23894.72;5033513;28;20666;-67
2023/12/16 09:27:34;;;;;;;1.47;1.37;;;;;;;2.71;nan;-23891.72;5032519;28;20207;-67
2023/12/16 09:29:59;;;;;;;1.60;1.50;;;;;;;2.47;nan;-23885.03;5033342;28;20184;-64
2023/12/16 09:32:24;;;;;;;1.90;1.80;;;;;;;2.74;nan;-23892.44;5033606;28;20209;-66
2023/12/16 09:34:50;;;;;;;1.50;1.40;;;;;;;2.59;nan;-23888.44;5033441;28;20171;-66
2023/12/16 09:37:15;;;;;;;5.93;2.50;;;;;;;2.73;nan;-23892.16;5033526;28;20646;-67
2023/12/16 09:39:41;;;;;;;2.27;2.17;;;;;;;2.29;nan;-23879.88;5034203;28;20167;-67
2023/12/16 09:42:06;;;;;;;2.53;2.10;;;;;;;2.59;nan;-23888.31;5033781;28;20733;-67
2023/12/16 09:44:36;;;;;;;2.17;2.07;;;;;;;2.39;nan;-23882.59;5034186;28;20266;-68
2023/12/16 09:47:03;;;;;;;1.57;1.47;;;;;;;2.58;nan;-23888.16;5034202;28;20164;-67
2023/12/16 09:49:30;;;;;;;1.23;1.23;;;;;;;2.57;nan;-23887.88;5034020;28;20187;-67
2023/12/16 09:51:55;;;;;;;1.30;1.20;;;;;;;2.68;nan;-23891.00;5033593;28;20643;-66
2023/12/16 09:54:21;;;;;;;1.50;1.40;;;;;;;2.82;nan;-23894.72;5033598;28;20235;-66
2023/12/16 09:56:49;;;;;;;1.53;1.43;;;;;;;2.85;nan;-23895.72;5034020;28;20167;-66
2023/12/16 09:59:16;;;;;;;1.40;1.33;;;;;;;2.90;nan;-23897.16;5034146;28;20172;-67
2023/12/16 10:01:50;;;;;;;1.33;1.33;;;;;;;3.08;nan;-23902.28;5033726;28;20264;-66
2023/12/16 10:04:16;;;;;;;1.07;1.07;;;;;;;2.89;nan;-23896.72;5033822;28;20162;-67
2023/12/16 10:06:41;;;;;;;2.37;1.47;;;;;;;2.68;nan;-23891.00;5033501;28;20171;-66
2023/12/16 10:09:07;;;;;;;1.97;1.77;;;;;;;2.79;nan;-23893.88;5033476;28;20214;-68
2023/12/16 10:11:42;;;;;;;1.00;1.00;;;;;;;2.73;nan;-23892.16;5032307;28;20229;-67
2023/12/16 10:14:07;;;;;;;1.60;1.50;;;;;;;2.83;nan;-23895.00;5033604;28;20171;-67
2023/12/16 10:16:33;;;;;;;1.73;1.63;;;;;;;3.19;nan;-23905.28;5033259;28;20168;-66
2023/12/16 10:18:59;;;;;;;2.80;2.17;;;;;;;3.11;nan;-23903.00;5033222;28;20172;-67
2023/12/16 10:21:29;;;;;;;1.90;1.80;;;;;;;3.00;nan;-23900.00;5031603;28;20199;-67
2023/12/16 10:23:57;;;;;;;1.10;1.10;;;;;;;3.02;nan;-23900.44;5033635;28;20156;-67
2023/12/16 10:26:23;;;;;;;1.43;1.33;;;;;;;3.24;nan;-23904.88;5033137;28;20170;-68
2023/12/16 10:28:51;;;;;;;1.43;1.33;;;;;;;3.19;nan;-23903.44;5033082;28;20258;-66
2023/12/16 10:31:21;;;;;;;1.23;1.23;;;;;;;3.22;nan;-23904.16;5033331;28;20215;-66
2023/12/16 10:33:47;;;;;;;1.33;1.27;;;;;;;3.01;nan;-23898.31;5033112;28;20662;-66
2023/12/16 10:36:13;;;;;;;1.13;1.13;;;;;;;3.32;nan;-23907.16;5033301;28;20309;-67
2023/12/16 10:38:38;;;;;;;2.03;1.90;;;;;;;2.96;nan;-23898.72;5033601;28;20191;-67
2023/12/16 10:41:04;;;;;;;1.30;1.30;;;;;;;3.11;nan;-23903.00;5031909;28;20246;-68
2023/12/16 10:43:29;;;;;;;2.23;1.67;;;;;;;3.30;nan;-23908.41;5033366;28;20175;-67
2023/12/16 10:45:55;;;;;;;1.80;1.23;;;;;;;3.34;nan;-23909.56;5032765;28;20176;-67
2023/12/16 10:48:21;;;;;;;1.30;1.30;;;;;;;3.24;nan;-23906.56;5032470;28;20210;-65
2023/12/16 10:50:48;;;;;;;1.27;1.20;;;;;;;3.40;nan;-23909.44;5032906;28;20175;-67
2023/12/16 10:53:31;;;;;;;1.43;1.33;;;;;;;3.29;nan;-23906.28;5033257;28;20237;-67
2023/12/16 10:56:03;;;;;;;1.97;1.40;;;;;;;2.93;nan;-23898.00;5033277;28;20182;-65
2023/12/16 10:58:35;;;;;;;1.63;1.53;;;;;;;3.23;nan;-23906.44;5032921;28;20694;-66
2023/12/16 11:01:08;;;;;;;1.57;1.47;;;;;;;3.08;nan;-23902.28;5032578;28;20217;-66
2023/12/16 11:03:41;;;;;;;1.70;1.60;;;;;;;3.05;nan;-23901.28;5032996;28;20313;-67
2023/12/16 11:06:15;;;;;;;2.70;2.23;;;;;;;2.99;nan;-23899.72;5033119;28;20173;-65
2023/12/16 11:08:40;;;;;;;2.20;2.07;;;;;;;3.32;nan;-23909.00;5032948;28;20178;-67
2023/12/16 11:11:06;;;;;;;4.00;2.03;;;;;;;3.18;nan;-23905.00;5032977;28;20175;-64
2023/12/16 11:13:33;;;;;;;1.93;1.43;;;;;;;3.21;nan;-23905.72;5032457;28;20171;-66
2023/12/16 11:16:10;;;;;;;1.77;1.67;;;;;;;3.20;nan;-23905.56;5032800;28;20765;-67
2023/12/16 11:18:37;;;;;;;1.77;1.50;;;;;;;3.16;nan;-23904.44;5032535;28;20179;-66
2023/12/16 11:21:07;;;;;;;1.33;1.30;;;;;;;2.92;nan;-23897.56;5032036;28;20184;-64
2023/12/16 11:23:42;;;;;;;2.37;1.93;;;;;;;3.32;nan;-23908.84;5032329;28;20266;-67
2023/12/16 11:26:09;;;;;;;1.57;1.47;;;;;;;3.23;nan;-23906.44;5032483;28;20168;-66
2023/12/16 11:28:35;;;;;;;1.10;1.10;;;;;;;3.09;nan;-23902.56;5032512;28;20176;-67
2023/12/16 11:31:02;;;;;;;1.87;1.77;;;;;;;3.03;nan;-23900.88;5031952;28;20591;-67
2023/12/16 11:33:44;;;;;;;1.73;1.47;;;;;;;3.13;nan;-23903.56;5032014;28;20172;-67
2023/12/16 11:36:10;;;;;;;1.10;1.10;;;;;;;2.89;nan;-23896.88;5032130;28;20229;-66
2023/12/16 11:38:37;;;;;;;2.77;1.57;;;;;;;3.03;nan;-23900.72;5030296;28;20214;-68
2023/12/16 11:41:03;;;;;;;3.63;1.50;;;;;;;2.92;nan;-23897.72;5032204;28;20206;-65
2023/12/16 11:43:51;;;;;;;1.10;1.10;;;;;;;3.17;nan;-23904.72;5032065;28;20179;-69
2023/12/16 11:46:35;;;;;;;2.10;1.90;;;;;;;3.23;nan;-23906.28;5032004;28;20250;-66